sensor_id;sensor_type;location;lat;lon;timestamp;temperature;humidity
40808;DHT22;26523;52.504;13.498;2023-05-09T00:00:43;8.30;97.50
40808;DHT22;26523;52.504;13.498;2023-05-09T00:03:09;8.30;97.80
40808;DHT22;26523;52.504;13.498;2023-05-09T00:05:36;8.40;97.70
40808;DHT22;26523;52.504;13.498;2023-05-09T00:08:02;8.40;97.90
40808;DHT22;26523;52.504;13.498;2023-05-09T00:10:27;8.40;97.90
40808;DHT22;26523;52.504;13.498;2023-05-09T00:12:53;8.40;97.90
40808;DHT22;26523;52.504;13.498;2023-05-09T00:15:19;8.30;98.20
40808;DHT22;26523;52.504;13.498;2023-05-09T00:17:45;8.40;98.30
40808;DHT22;26523;52.504;13.498;2023-05-09T00:20:11;8.40;98.40
40808;DHT22;26523;52.504;13.498;2023-05-09T00:22:40;8.40;98.40
40808;DHT22;26523;52.504;13.498;2023-05-09T00:25:07;8.40;98.80
40808;DHT22;26523;52.504;13.498;2023-05-09T00:27:33;8.40;98.80
40808;DHT22;26523;52.504;13.498;2023-05-09T00:29:59;8.40;99.00
40808;DHT22;26523;52.504;13.498;2023-05-09T00:32:25;8.40;98.90
40808;DHT22;26523;52.504;13.498;2023-05-09T00:34:51;8.40;99.00
40808;DHT22;26523;52.504;13.498;2023-05-09T00:37:17;8.40;98.90
40808;DHT22;26523;52.504;13.498;2023-05-09T00:39:44;8.30;99.40
40808;DHT22;26523;52.504;13.498;2023-05-09T00:42:10;8.30;99.40
40808;DHT22;26523;52.504;13.498;2023-05-09T00:44:36;8.40;99.50
40808;DHT22;26523;52.504;13.498;2023-05-09T00:47:01;8.30;99.50
40808;DHT22;26523;52.504;13.498;2023-05-09T00:49:27;8.30;99.80
40808;DHT22;26523;52.504;13.498;2023-05-09T00:51:54;8.30;99.70
40808;DHT22;26523;52.504;13.498;2023-05-09T00:54:20;8.20;99.90
40808;DHT22;26523;52.504;13.498;2023-05-09T00:56:46;8.20;99.90
40808;DHT22;26523;52.504;13.498;2023-05-09T00:59:11;8.20;99.90
40808;DHT22;26523;52.504;13.498;2023-05-09T01:01:37;8.20;99.90
40808;DHT22;26523;52.504;13.498;2023-05-09T01:04:03;8.10;99.90
40808;DHT22;26523;52.504;13.498;2023-05-09T01:06:50;8.10;99.90
40808;DHT22;26523;52.504;13.498;2023-05-09T01:14:46;8.00;99.90
40808;DHT22;26523;52.504;13.498;2023-05-09T01:20:09;8.10;99.90
40808;DHT22;26523;52.504;13.498;2023-05-09T01:22:40;8.20;99.90
40808;DHT22;26523;52.504;13.498;2023-05-09T01:26:22;8.10;99.90
40808;DHT22;26523;52.504;13.498;2023-05-09T01:31:20;8.10;99.90
40808;DHT22;26523;52.504;13.498;2023-05-09T01:33:51;8.00;99.90
40808;DHT22;26523;52.504;13.498;2023-05-09T01:36:18;8.20;99.90
40808;DHT22;26523;52.504;13.498;2023-05-09T01:38:47;8.20;99.80
40808;DHT22;26523;52.504;13.498;2023-05-09T01:41:16;8.20;99.50
40808;DHT22;26523;52.504;13.498;2023-05-09T01:43:45;8.20;99.30
40808;DHT22;26523;52.504;13.498;2023-05-09T01:46:11;8.20;99.30
40808;DHT22;26523;52.504;13.498;2023-05-09T01:48:39;8.20;99.20
40808;DHT22;26523;52.504;13.498;2023-05-09T01:51:07;8.20;99.20
40808;DHT22;26523;52.504;13.498;2023-05-09T01:53:34;8.30;99.00
40808;DHT22;26523;52.504;13.498;2023-05-09T01:56:03;8.30;98.90
40808;DHT22;26523;52.504;13.498;2023-05-09T01:58:31;8.30;98.60
40808;DHT22;26523;52.504;13.498;2023-05-09T02:00:59;8.20;98.70
40808;DHT22;26523;52.504;13.498;2023-05-09T02:03:25;8.40;98.20
40808;DHT22;26523;52.504;13.498;2023-05-09T02:05:52;8.40;98.00
40808;DHT22;26523;52.504;13.498;2023-05-09T02:08:19;8.40;97.70
40808;DHT22;26523;52.504;13.498;2023-05-09T02:10:47;8.30;97.80
40808;DHT22;26523;52.504;13.498;2023-05-09T02:13:13;8.30;97.60
40808;DHT22;26523;52.504;13.498;2023-05-09T02:15:39;8.30;97.20
40808;DHT22;26523;52.504;13.498;2023-05-09T02:18:05;8.40;97.00
40808;DHT22;26523;52.504;13.498;2023-05-09T02:20:30;8.40;96.70
40808;DHT22;26523;52.504;13.498;2023-05-09T02:23:00;8.40;96.50
40808;DHT22;26523;52.504;13.498;2023-05-09T02:25:26;8.50;96.10
40808;DHT22;26523;52.504;13.498;2023-05-09T02:27:54;8.60;95.90
40808;DHT22;26523;52.504;13.498;2023-05-09T02:30:23;8.60;95.80
40808;DHT22;26523;52.504;13.498;2023-05-09T02:32:52;8.60;95.60
40808;DHT22;26523;52.504;13.498;2023-05-09T02:35:21;8.60;95.60
40808;DHT22;26523;52.504;13.498;2023-05-09T02:37:47;8.60;95.50
40808;DHT22;26523;52.504;13.498;2023-05-09T02:40:13;8.60;95.30
40808;DHT22;26523;52.504;13.498;2023-05-09T02:42:39;8.50;95.40
40808;DHT22;26523;52.504;13.498;2023-05-09T02:45:06;8.50;95.50
40808;DHT22;26523;52.504;13.498;2023-05-09T02:47:32;8.60;95.40
40808;DHT22;26523;52.504;13.498;2023-05-09T02:49:57;8.50;95.30
40808;DHT22;26523;52.504;13.498;2023-05-09T02:52:23;8.60;95.10
40808;DHT22;26523;52.504;13.498;2023-05-09T02:54:49;8.50;95.40
40808;DHT22;26523;52.504;13.498;2023-05-09T02:57:14;8.50;95.70
40808;DHT22;26523;52.504;13.498;2023-05-09T02:59:40;8.50;95.40
40808;DHT22;26523;52.504;13.498;2023-05-09T03:02:06;8.60;95.10
40808;DHT22;26523;52.504;13.498;2023-05-09T03:04:32;8.60;95.20
40808;DHT22;26523;52.504;13.498;2023-05-09T03:06:57;8.50;95.10
40808;DHT22;26523;52.504;13.498;2023-05-09T03:09:23;8.60;95.30
40808;DHT22;26523;52.504;13.498;2023-05-09T03:11:49;8.50;95.10
40808;DHT22;26523;52.504;13.498;2023-05-09T03:14:14;8.50;95.20
40808;DHT22;26523;52.504;13.498;2023-05-09T03:16:40;8.50;95.50
40808;DHT22;26523;52.504;13.498;2023-05-09T03:19:06;8.60;95.20
40808;DHT22;26523;52.504;13.498;2023-05-09T03:21:31;8.50;95.40
40808;DHT22;26523;52.504;13.498;2023-05-09T03:23:57;8.60;95.40
40808;DHT22;26523;52.504;13.498;2023-05-09T03:26:23;8.50;95.50
40808;DHT22;26523;52.504;13.498;2023-05-09T03:28:48;8.50;95.70
40808;DHT22;26523;52.504;13.498;2023-05-09T03:31:15;8.40;95.60
40808;DHT22;26523;52.504;13.498;2023-05-09T03:33:40;8.40;96.00
40808;DHT22;26523;52.504;13.498;2023-05-09T03:36:06;8.40;96.00
40808;DHT22;26523;52.504;13.498;2023-05-09T03:38:32;8.40;96.10
40808;DHT22;26523;52.504;13.498;2023-05-09T03:40:58;8.30;96.30
40808;DHT22;26523;52.504;13.498;2023-05-09T03:43:24;8.20;96.50
40808;DHT22;26523;52.504;13.498;2023-05-09T03:45:50;8.20;96.60
40808;DHT22;26523;52.504;13.498;2023-05-09T03:48:16;8.20;96.90
40808;DHT22;26523;52.504;13.498;2023-05-09T03:50:42;8.30;96.80
40808;DHT22;26523;52.504;13.498;2023-05-09T03:53:08;8.30;96.90
40808;DHT22;26523;52.504;13.498;2023-05-09T03:55:34;8.20;96.80
40808;DHT22;26523;52.504;13.498;2023-05-09T03:57:59;8.20;97.00
40808;DHT22;26523;52.504;13.498;2023-05-09T04:00:25;8.30;97.00
40808;DHT22;26523;52.504;13.498;2023-05-09T04:02:51;8.40;96.80
40808;DHT22;26523;52.504;13.498;2023-05-09T04:05:17;8.40;96.70
40808;DHT22;26523;52.504;13.498;2023-05-09T04:07:43;8.40;96.70
40808;DHT22;26523;52.504;13.498;2023-05-09T04:10:09;8.40;96.70
40808;DHT22;26523;52.504;13.498;2023-05-09T04:12:35;8.50;96.70
40808;DHT22;26523;52.504;13.498;2023-05-09T04:15:00;8.60;96.80
40808;DHT22;26523;52.504;13.498;2023-05-09T04:17:26;8.60;96.70
40808;DHT22;26523;52.504;13.498;2023-05-09T04:19:51;8.60;96.90
40808;DHT22;26523;52.504;13.498;2023-05-09T04:22:17;8.60;97.00
40808;DHT22;26523;52.504;13.498;2023-05-09T04:24:43;8.60;97.10
40808;DHT22;26523;52.504;13.498;2023-05-09T04:27:08;8.60;97.00
40808;DHT22;26523;52.504;13.498;2023-05-09T04:29:34;8.50;97.30
40808;DHT22;26523;52.504;13.498;2023-05-09T04:32:01;8.50;97.20
40808;DHT22;26523;52.504;13.498;2023-05-09T04:34:27;8.60;97.30
40808;DHT22;26523;52.504;13.498;2023-05-09T04:36:54;8.60;97.20
40808;DHT22;26523;52.504;13.498;2023-05-09T04:39:20;8.70;97.10
40808;DHT22;26523;52.504;13.498;2023-05-09T04:41:45;8.70;97.10
40808;DHT22;26523;52.504;13.498;2023-05-09T04:44:15;8.70;97.10
40808;DHT22;26523;52.504;13.498;2023-05-09T04:46:41;8.80;97.00
40808;DHT22;26523;52.504;13.498;2023-05-09T04:49:08;8.90;97.00
40808;DHT22;26523;52.504;13.498;2023-05-09T04:51:33;9.00;96.90
40808;DHT22;26523;52.504;13.498;2023-05-09T04:53:59;9.00;96.80
40808;DHT22;26523;52.504;13.498;2023-05-09T04:56:25;9.10;96.80
40808;DHT22;26523;52.504;13.498;2023-05-09T04:58:50;9.10;96.60
40808;DHT22;26523;52.504;13.498;2023-05-09T05:01:17;9.20;96.60
40808;DHT22;26523;52.504;13.498;2023-05-09T05:03:43;9.30;96.60
40808;DHT22;26523;52.504;13.498;2023-05-09T05:06:08;9.40;96.60
40808;DHT22;26523;52.504;13.498;2023-05-09T05:08:34;9.50;96.50
40808;DHT22;26523;52.504;13.498;2023-05-09T05:11:00;9.60;96.40
40808;DHT22;26523;52.504;13.498;2023-05-09T05:13:25;9.70;96.10
40808;DHT22;26523;52.504;13.498;2023-05-09T05:15:51;9.80;96.00
40808;DHT22;26523;52.504;13.498;2023-05-09T05:18:17;10.10;95.50
40808;DHT22;26523;52.504;13.498;2023-05-09T05:20:43;10.20;95.50
40808;DHT22;26523;52.504;13.498;2023-05-09T05:23:09;10.30;94.90
40808;DHT22;26523;52.504;13.498;2023-05-09T05:25:35;10.50;94.70
40808;DHT22;26523;52.504;13.498;2023-05-09T05:28:00;10.70;94.50
40808;DHT22;26523;52.504;13.498;2023-05-09T05:30:26;10.80;94.10
40808;DHT22;26523;52.504;13.498;2023-05-09T05:32:52;11.00;93.60
40808;DHT22;26523;52.504;13.498;2023-05-09T05:35:17;11.10;93.60
40808;DHT22;26523;52.504;13.498;2023-05-09T05:37:46;11.30;93.40
40808;DHT22;26523;52.504;13.498;2023-05-09T05:40:11;11.50;93.30
40808;DHT22;26523;52.504;13.498;2023-05-09T05:42:37;11.70;92.50
40808;DHT22;26523;52.504;13.498;2023-05-09T05:45:03;11.90;92.10
40808;DHT22;26523;52.504;13.498;2023-05-09T05:47:33;12.00;92.20
40808;DHT22;26523;52.504;13.498;2023-05-09T05:50:00;12.30;92.00
40808;DHT22;26523;52.504;13.498;2023-05-09T05:52:26;12.60;91.80
40808;DHT22;26523;52.504;13.498;2023-05-09T05:54:52;13.30;90.30
40808;DHT22;26523;52.504;13.498;2023-05-09T05:57:18;15.20;87.20
40808;DHT22;26523;52.504;13.498;2023-05-09T05:59:49;18.00;78.10
40808;DHT22;26523;52.504;13.498;2023-05-09T06:02:18;19.90;73.60
40808;DHT22;26523;52.504;13.498;2023-05-09T06:04:43;21.70;66.90
40808;DHT22;26523;52.504;13.498;2023-05-09T06:07:10;23.10;64.30
40808;DHT22;26523;52.504;13.498;2023-05-09T06:09:37;24.30;60.60
40808;DHT22;26523;52.504;13.498;2023-05-09T06:12:02;24.90;58.60
40808;DHT22;26523;52.504;13.498;2023-05-09T06:14:28;25.50;57.40
40808;DHT22;26523;52.504;13.498;2023-05-09T06:16:54;25.30;56.00
40808;DHT22;26523;52.504;13.498;2023-05-09T06:19:20;24.80;55.20
40808;DHT22;26523;52.504;13.498;2023-05-09T06:21:45;25.40;54.60
40808;DHT22;26523;52.504;13.498;2023-05-09T06:24:11;25.90;54.80
40808;DHT22;26523;52.504;13.498;2023-05-09T06:26:37;27.30;52.60
40808;DHT22;26523;52.504;13.498;2023-05-09T06:29:03;26.20;52.80
40808;DHT22;26523;52.504;13.498;2023-05-09T06:31:30;25.80;54.10
40808;DHT22;26523;52.504;13.498;2023-05-09T06:33:56;26.40;53.20
40808;DHT22;26523;52.504;13.498;2023-05-09T06:36:21;27.40;51.80
40808;DHT22;26523;52.504;13.498;2023-05-09T06:38:47;26.30;52.00
40808;DHT22;26523;52.504;13.498;2023-05-09T06:41:12;26.40;51.40
40808;DHT22;26523;52.504;13.498;2023-05-09T06:43:38;26.40;51.20
40808;DHT22;26523;52.504;13.498;2023-05-09T06:46:04;26.70;51.40
40808;DHT22;26523;52.504;13.498;2023-05-09T06:48:29;27.60;50.90
40808;DHT22;26523;52.504;13.498;2023-05-09T06:50:55;27.90;50.30
40808;DHT22;26523;52.504;13.498;2023-05-09T06:53:21;27.70;50.10
40808;DHT22;26523;52.504;13.498;2023-05-09T06:55:46;28.70;49.50
40808;DHT22;26523;52.504;13.498;2023-05-09T06:58:12;28.10;49.60
40808;DHT22;26523;52.504;13.498;2023-05-09T07:00:38;29.70;48.70
40808;DHT22;26523;52.504;13.498;2023-05-09T07:03:04;29.50;47.90
40808;DHT22;26523;52.504;13.498;2023-05-09T07:05:32;29.40;47.60
40808;DHT22;26523;52.504;13.498;2023-05-09T07:07:57;27.80;49.00
40808;DHT22;26523;52.504;13.498;2023-05-09T07:10:23;28.00;48.40
40808;DHT22;26523;52.504;13.498;2023-05-09T07:12:49;28.30;48.30
40808;DHT22;26523;52.504;13.498;2023-05-09T07:15:15;28.20;47.70
40808;DHT22;26523;52.504;13.498;2023-05-09T07:17:41;28.30;47.60
40808;DHT22;26523;52.504;13.498;2023-05-09T07:20:07;28.40;48.30
40808;DHT22;26523;52.504;13.498;2023-05-09T07:22:32;28.60;47.60
40808;DHT22;26523;52.504;13.498;2023-05-09T07:24:58;28.00;47.50
40808;DHT22;26523;52.504;13.498;2023-05-09T07:27:24;28.20;47.60
40808;DHT22;26523;52.504;13.498;2023-05-09T07:29:49;28.60;47.50
40808;DHT22;26523;52.504;13.498;2023-05-09T07:32:17;29.70;46.60
40808;DHT22;26523;52.504;13.498;2023-05-09T07:34:43;29.80;45.80
40808;DHT22;26523;52.504;13.498;2023-05-09T07:37:09;30.30;45.50
40808;DHT22;26523;52.504;13.498;2023-05-09T07:39:34;30.20;46.10
40808;DHT22;26523;52.504;13.498;2023-05-09T07:42:00;30.20;45.60
40808;DHT22;26523;52.504;13.498;2023-05-09T07:44:26;29.20;45.30
40808;DHT22;26523;52.504;13.498;2023-05-09T07:46:51;30.00;45.30
40808;DHT22;26523;52.504;13.498;2023-05-09T07:49:20;29.30;46.10
40808;DHT22;26523;52.504;13.498;2023-05-09T07:51:45;30.60;45.50
40808;DHT22;26523;52.504;13.498;2023-05-09T07:54:11;30.90;44.50
40808;DHT22;26523;52.504;13.498;2023-05-09T07:56:37;30.40;44.30
40808;DHT22;26523;52.504;13.498;2023-05-09T07:59:02;29.00;44.90
40808;DHT22;26523;52.504;13.498;2023-05-09T08:01:28;27.30;46.70
40808;DHT22;26523;52.504;13.498;2023-05-09T08:03:53;25.10;48.20
40808;DHT22;26523;52.504;13.498;2023-05-09T08:06:19;24.30;49.60
40808;DHT22;26523;52.504;13.498;2023-05-09T08:08:45;24.10;50.20
40808;DHT22;26523;52.504;13.498;2023-05-09T08:11:10;23.60;50.10
40808;DHT22;26523;52.504;13.498;2023-05-09T08:13:36;22.70;52.00
40808;DHT22;26523;52.504;13.498;2023-05-09T08:16:02;22.00;53.10
40808;DHT22;26523;52.504;13.498;2023-05-09T08:18:27;22.00;53.30
40808;DHT22;26523;52.504;13.498;2023-05-09T08:20:53;21.30;53.00
40808;DHT22;26523;52.504;13.498;2023-05-09T08:23:19;20.30;54.40
40808;DHT22;26523;52.504;13.498;2023-05-09T08:25:44;19.70;55.60
40808;DHT22;26523;52.504;13.498;2023-05-09T08:28:10;19.40;56.30
40808;DHT22;26523;52.504;13.498;2023-05-09T08:30:36;20.20;55.60
40808;DHT22;26523;52.504;13.498;2023-05-09T08:33:01;22.70;53.30
40808;DHT22;26523;52.504;13.498;2023-05-09T08:35:27;24.70;50.10
40808;DHT22;26523;52.504;13.498;2023-05-09T08:37:53;26.70;48.30
40808;DHT22;26523;52.504;13.498;2023-05-09T08:40:19;27.00;47.30
40808;DHT22;26523;52.504;13.498;2023-05-09T08:42:44;25.10;48.30
40808;DHT22;26523;52.504;13.498;2023-05-09T08:45:13;23.90;50.00
40808;DHT22;26523;52.504;13.498;2023-05-09T08:47:39;22.90;51.30
40808;DHT22;26523;52.504;13.498;2023-05-09T08:50:07;21.40;53.90
40808;DHT22;26523;52.504;13.498;2023-05-09T08:52:33;20.20;55.40
40808;DHT22;26523;52.504;13.498;2023-05-09T08:55:00;20.40;55.50
40808;DHT22;26523;52.504;13.498;2023-05-09T08:57:28;20.20;55.70
40808;DHT22;26523;52.504;13.498;2023-05-09T08:59:54;20.20;55.90
40808;DHT22;26523;52.504;13.498;2023-05-09T09:02:21;19.60;56.20
40808;DHT22;26523;52.504;13.498;2023-05-09T09:04:46;19.30;57.60
40808;DHT22;26523;52.504;13.498;2023-05-09T09:07:14;19.80;56.70
40808;DHT22;26523;52.504;13.498;2023-05-09T09:09:45;20.50;55.00
40808;DHT22;26523;52.504;13.498;2023-05-09T09:12:11;21.20;54.90
40808;DHT22;26523;52.504;13.498;2023-05-09T09:14:42;21.20;54.50
40808;DHT22;26523;52.504;13.498;2023-05-09T09:17:14;20.90;54.90
40808;DHT22;26523;52.504;13.498;2023-05-09T09:19:43;20.70;55.30
40808;DHT22;26523;52.504;13.498;2023-05-09T09:22:12;19.80;55.80
40808;DHT22;26523;52.504;13.498;2023-05-09T09:24:40;19.10;56.80
40808;DHT22;26523;52.504;13.498;2023-05-09T09:27:06;19.50;56.80
40808;DHT22;26523;52.504;13.498;2023-05-09T09:29:32;20.80;55.00
40808;DHT22;26523;52.504;13.498;2023-05-09T09:32:01;22.10;53.50
40808;DHT22;26523;52.504;13.498;2023-05-09T09:34:27;22.40;52.80
40808;DHT22;26523;52.504;13.498;2023-05-09T09:36:53;22.00;53.70
40808;DHT22;26523;52.504;13.498;2023-05-09T09:39:19;20.80;55.00
40808;DHT22;26523;52.504;13.498;2023-05-09T09:41:46;20.00;56.40
40808;DHT22;26523;52.504;13.498;2023-05-09T09:44:13;18.60;57.40
40808;DHT22;26523;52.504;13.498;2023-05-09T09:46:46;18.20;59.20
40808;DHT22;26523;52.504;13.498;2023-05-09T09:49:12;17.70;60.10
40808;DHT22;26523;52.504;13.498;2023-05-09T09:51:39;17.70;60.50
40808;DHT22;26523;52.504;13.498;2023-05-09T09:54:09;17.60;59.60
40808;DHT22;26523;52.504;13.498;2023-05-09T09:56:42;17.50;60.00
40808;DHT22;26523;52.504;13.498;2023-05-09T09:59:15;17.10;60.70
40808;DHT22;26523;52.504;13.498;2023-05-09T10:02:07;16.90;61.20
40808;DHT22;26523;52.504;13.498;2023-05-09T10:04:35;16.90;61.40
40808;DHT22;26523;52.504;13.498;2023-05-09T10:07:09;16.90;60.90
40808;DHT22;26523;52.504;13.498;2023-05-09T10:09:36;16.80;60.20
40808;DHT22;26523;52.504;13.498;2023-05-09T10:12:06;16.80;60.50
40808;DHT22;26523;52.504;13.498;2023-05-09T10:14:34;16.70;60.60
40808;DHT22;26523;52.504;13.498;2023-05-09T10:17:01;16.60;61.00
40808;DHT22;26523;52.504;13.498;2023-05-09T10:19:28;16.80;61.20
40808;DHT22;26523;52.504;13.498;2023-05-09T10:21:59;17.00;60.70
40808;DHT22;26523;52.504;13.498;2023-05-09T10:27:10;16.90;58.80
40808;DHT22;26523;52.504;13.498;2023-05-09T10:29:54;16.80;59.00
40808;DHT22;26523;52.504;13.498;2023-05-09T10:33:10;16.80;59.80
40808;DHT22;26523;52.504;13.498;2023-05-09T10:35:18;16.80;60.00
40808;DHT22;26523;52.504;13.498;2023-05-09T10:37:45;16.70;60.00
40808;DHT22;26523;52.504;13.498;2023-05-09T10:40:11;16.60;59.50
40808;DHT22;26523;52.504;13.498;2023-05-09T10:42:43;16.70;60.00
40808;DHT22;26523;52.504;13.498;2023-05-09T10:45:12;16.70;60.00
40808;DHT22;26523;52.504;13.498;2023-05-09T10:47:39;16.90;59.80
40808;DHT22;26523;52.504;13.498;2023-05-09T10:50:10;16.90;59.20
40808;DHT22;26523;52.504;13.498;2023-05-09T10:55:55;17.10;59.60
40808;DHT22;26523;52.504;13.498;2023-05-09T10:58:28;17.00;59.80
40808;DHT22;26523;52.504;13.498;2023-05-09T11:00:56;17.10;60.00
40808;DHT22;26523;52.504;13.498;2023-05-09T11:03:24;17.10;60.40
40808;DHT22;26523;52.504;13.498;2023-05-09T11:05:55;17.20;60.40
40808;DHT22;26523;52.504;13.498;2023-05-09T11:08:30;17.30;59.60
40808;DHT22;26523;52.504;13.498;2023-05-09T11:11:04;17.30;59.50
40808;DHT22;26523;52.504;13.498;2023-05-09T11:13:31;17.20;60.00
40808;DHT22;26523;52.504;13.498;2023-05-09T11:18:30;17.10;61.40
40808;DHT22;26523;52.504;13.498;2023-05-09T11:20:57;17.20;61.30
40808;DHT22;26523;52.504;13.498;2023-05-09T11:23:28;17.10;61.10
40808;DHT22;26523;52.504;13.498;2023-05-09T11:26:04;17.20;60.60
40808;DHT22;26523;52.504;13.498;2023-05-09T11:28:32;17.20;59.40
40808;DHT22;26523;52.504;13.498;2023-05-09T11:33:35;17.30;59.70
40808;DHT22;26523;52.504;13.498;2023-05-09T11:36:19;17.50;59.40
40808;DHT22;26523;52.504;13.498;2023-05-09T11:38:46;17.40;59.10
40808;DHT22;26523;52.504;13.498;2023-05-09T11:41:12;17.50;59.30
40808;DHT22;26523;52.504;13.498;2023-05-09T11:43:38;17.40;59.10
40808;DHT22;26523;52.504;13.498;2023-05-09T11:46:04;17.40;59.10
40808;DHT22;26523;52.504;13.498;2023-05-09T11:48:36;17.50;59.50
40808;DHT22;26523;52.504;13.498;2023-05-09T11:51:02;17.40;59.10
40808;DHT22;26523;52.504;13.498;2023-05-09T11:53:28;17.40;60.00
40808;DHT22;26523;52.504;13.498;2023-05-09T11:55:54;17.40;59.60
40808;DHT22;26523;52.504;13.498;2023-05-09T11:58:19;17.40;59.40
40808;DHT22;26523;52.504;13.498;2023-05-09T12:00:45;17.50;60.20
40808;DHT22;26523;52.504;13.498;2023-05-09T12:03:11;17.60;59.90
40808;DHT22;26523;52.504;13.498;2023-05-09T12:05:37;17.50;59.20
40808;DHT22;26523;52.504;13.498;2023-05-09T12:08:07;17.50;58.60
40808;DHT22;26523;52.504;13.498;2023-05-09T12:10:37;17.40;59.30
40808;DHT22;26523;52.504;13.498;2023-05-09T12:13:03;17.40;59.50
40808;DHT22;26523;52.504;13.498;2023-05-09T12:15:28;17.40;59.80
40808;DHT22;26523;52.504;13.498;2023-05-09T12:18:02;17.50;60.00
40808;DHT22;26523;52.504;13.498;2023-05-09T12:20:39;17.60;59.60
40808;DHT22;26523;52.504;13.498;2023-05-09T12:23:05;17.60;59.50
40808;DHT22;26523;52.504;13.498;2023-05-09T12:25:31;17.70;59.90
40808;DHT22;26523;52.504;13.498;2023-05-09T12:27:57;17.70;59.10
40808;DHT22;26523;52.504;13.498;2023-05-09T12:30:23;17.50;59.20
40808;DHT22;26523;52.504;13.498;2023-05-09T12:32:48;17.40;59.50
40808;DHT22;26523;52.504;13.498;2023-05-09T12:35:14;17.40;59.80
40808;DHT22;26523;52.504;13.498;2023-05-09T12:37:54;17.50;59.80
40808;DHT22;26523;52.504;13.498;2023-05-09T12:40:20;17.60;59.70
40808;DHT22;26523;52.504;13.498;2023-05-09T12:42:46;17.70;59.40
40808;DHT22;26523;52.504;13.498;2023-05-09T12:45:12;17.70;59.40
40808;DHT22;26523;52.504;13.498;2023-05-09T12:47:38;17.70;59.80
40808;DHT22;26523;52.504;13.498;2023-05-09T12:50:05;17.80;59.80
40808;DHT22;26523;52.504;13.498;2023-05-09T12:52:36;17.80;60.00
40808;DHT22;26523;52.504;13.498;2023-05-09T12:55:10;17.70;60.70
40808;DHT22;26523;52.504;13.498;2023-05-09T12:57:37;17.70;59.40
40808;DHT22;26523;52.504;13.498;2023-05-09T13:00:05;17.80;59.10
40808;DHT22;26523;52.504;13.498;2023-05-09T13:02:39;17.70;58.40
40808;DHT22;26523;52.504;13.498;2023-05-09T13:05:13;17.70;58.60
40808;DHT22;26523;52.504;13.498;2023-05-09T13:07:44;17.80;58.80
40808;DHT22;26523;52.504;13.498;2023-05-09T13:10:14;17.80;59.40
40808;DHT22;26523;52.504;13.498;2023-05-09T13:12:40;18.00;59.80
40808;DHT22;26523;52.504;13.498;2023-05-09T13:15:10;18.10;59.60
40808;DHT22;26523;52.504;13.498;2023-05-09T13:17:36;18.20;59.20
40808;DHT22;26523;52.504;13.498;2023-05-09T13:20:02;18.30;59.20
40808;DHT22;26523;52.504;13.498;2023-05-09T13:22:31;18.30;59.10
40808;DHT22;26523;52.504;13.498;2023-05-09T13:24:57;18.30;59.20
40808;DHT22;26523;52.504;13.498;2023-05-09T13:27:23;18.30;59.20
40808;DHT22;26523;52.504;13.498;2023-05-09T13:29:48;18.30;59.70
40808;DHT22;26523;52.504;13.498;2023-05-09T13:32:14;18.30;59.60
40808;DHT22;26523;52.504;13.498;2023-05-09T13:34:40;18.20;59.60
40808;DHT22;26523;52.504;13.498;2023-05-09T13:37:06;18.20;59.60
40808;DHT22;26523;52.504;13.498;2023-05-09T13:39:32;18.30;59.80
40808;DHT22;26523;52.504;13.498;2023-05-09T13:41:58;18.30;60.10
40808;DHT22;26523;52.504;13.498;2023-05-09T13:44:23;18.40;59.80
40808;DHT22;26523;52.504;13.498;2023-05-09T13:46:49;18.50;58.80
40808;DHT22;26523;52.504;13.498;2023-05-09T13:49:15;18.50;58.50
40808;DHT22;26523;52.504;13.498;2023-05-09T13:51:40;18.50;58.90
40808;DHT22;26523;52.504;13.498;2023-05-09T13:54:06;18.50;59.20
40808;DHT22;26523;52.504;13.498;2023-05-09T13:56:37;18.50;59.20
40808;DHT22;26523;52.504;13.498;2023-05-09T13:59:04;18.50;58.70
40808;DHT22;26523;52.504;13.498;2023-05-09T14:01:30;18.40;59.00
40808;DHT22;26523;52.504;13.498;2023-05-09T14:03:55;18.50;58.60
40808;DHT22;26523;52.504;13.498;2023-05-09T14:06:21;18.50;58.80
40808;DHT22;26523;52.504;13.498;2023-05-09T14:08:47;18.50;59.00
40808;DHT22;26523;52.504;13.498;2023-05-09T14:11:12;18.70;58.80
40808;DHT22;26523;52.504;13.498;2023-05-09T14:13:38;18.70;58.70
40808;DHT22;26523;52.504;13.498;2023-05-09T14:16:04;18.70;58.80
40808;DHT22;26523;52.504;13.498;2023-05-09T14:18:30;18.80;58.30
40808;DHT22;26523;52.504;13.498;2023-05-09T14:20:56;18.60;57.90
40808;DHT22;26523;52.504;13.498;2023-05-09T14:23:22;18.60;58.20
40808;DHT22;26523;52.504;13.498;2023-05-09T14:25:48;18.60;58.20
40808;DHT22;26523;52.504;13.498;2023-05-09T14:28:13;18.50;58.30
40808;DHT22;26523;52.504;13.498;2023-05-09T14:30:39;18.50;58.50
40808;DHT22;26523;52.504;13.498;2023-05-09T14:33:05;18.40;58.70
40808;DHT22;26523;52.504;13.498;2023-05-09T14:35:32;18.30;58.80
40808;DHT22;26523;52.504;13.498;2023-05-09T14:37:59;18.30;58.70
40808;DHT22;26523;52.504;13.498;2023-05-09T14:40:25;18.40;59.10
40808;DHT22;26523;52.504;13.498;2023-05-09T14:43:02;18.50;59.10
40808;DHT22;26523;52.504;13.498;2023-05-09T14:45:29;18.60;58.60
40808;DHT22;26523;52.504;13.498;2023-05-09T14:47:54;18.60;59.00
40808;DHT22;26523;52.504;13.498;2023-05-09T14:50:20;18.80;58.80
40808;DHT22;26523;52.504;13.498;2023-05-09T14:52:47;18.70;58.90
40808;DHT22;26523;52.504;13.498;2023-05-09T14:55:14;18.80;58.90
40808;DHT22;26523;52.504;13.498;2023-05-09T14:57:39;18.70;58.90
40808;DHT22;26523;52.504;13.498;2023-05-09T15:00:05;18.70;58.80
40808;DHT22;26523;52.504;13.498;2023-05-09T15:02:31;18.70;59.00
40808;DHT22;26523;52.504;13.498;2023-05-09T15:04:57;18.70;59.40
40808;DHT22;26523;52.504;13.498;2023-05-09T15:07:22;18.60;59.80
40808;DHT22;26523;52.504;13.498;2023-05-09T15:09:48;18.70;60.00
40808;DHT22;26523;52.504;13.498;2023-05-09T15:12:14;18.70;59.40
40808;DHT22;26523;52.504;13.498;2023-05-09T15:14:40;18.70;59.50
40808;DHT22;26523;52.504;13.498;2023-05-09T15:17:06;18.70;59.30
40808;DHT22;26523;52.504;13.498;2023-05-09T15:19:32;18.80;59.60
40808;DHT22;26523;52.504;13.498;2023-05-09T15:22:00;18.80;59.10
40808;DHT22;26523;52.504;13.498;2023-05-09T15:24:26;18.80;59.00
40808;DHT22;26523;52.504;13.498;2023-05-09T15:26:52;18.80;58.70
40808;DHT22;26523;52.504;13.498;2023-05-09T15:29:18;18.80;58.70
40808;DHT22;26523;52.504;13.498;2023-05-09T15:31:44;18.80;59.10
40808;DHT22;26523;52.504;13.498;2023-05-09T15:34:10;18.70;59.40
40808;DHT22;26523;52.504;13.498;2023-05-09T15:36:35;18.60;59.60
40808;DHT22;26523;52.504;13.498;2023-05-09T15:39:01;18.60;59.80
40808;DHT22;26523;52.504;13.498;2023-05-09T15:41:26;18.60;60.00